Pan Freesia — V7SB5 — position and weather

sailwx.info

Track history (hours):
 
Tides and Currents Weather Stations Pressure Air Temp Water Temp Dewpoint Dewpoint Depression Visibility Wind Speed Wind Dir Waves Ship Positions

Pan Freesia

Last reported at 2015-Jun-26 10:33 UTC. Time now 2015-Jul-31 15:23 UTC.
Position S 32°31' E 152°45'.
Warning: this ship's position is 35 days out of date.

Length 292 m; draft 15.2 m.

Type: Cargo ship. MMSI: 538003616.

Date/timePositionNaut miles runAvg speedWind from/ knotsBaromVisibWave heightAir tempDewpointWater temp
2015-Jun-26 10:33S 32°31' E 152°45'1212.3
2015-Jun-26 09:33S 32°40' E 152°35'1211.6
2015-Jun-26 08:33S 32°48' E 152°25'1211.6
2015-Jun-26 07:33S 32°53' E 152°13'1212.2
2015-Jun-26 06:33S 32°58' E 151°59'10 9.6
2015-Jun-26 05:33S 32°55' E 151°48'2 1.9
2015-Jun-26 04:22S 32°53' E 151°46'0 0.0
2015-Jun-26 02:04S 32°53' E 151°46'0 0.0
2015-Jun-26 01:22S 32°53' E 151°46'0 0.0
2015-Jun-26 00:28S 32°53' E 151°46'0 0.0
2015-Jun-25 23:28S 32°53' E 151°46'0 0.0
2015-Jun-25 22:10S 32°53' E 151°46'0 0.0
2015-Jun-25 14:31S 32°53' E 151°46'0 0.0
2015-Jun-25 13:28S 32°53' E 151°46'0 0.0
2015-Jun-25 12:28S 32°53' E 151°46'0 0.0
2015-Jun-25 11:31S 32°53' E 151°46'0 0.0
2015-Jun-25 10:22S 32°53' E 151°46'0 0.0
2015-Jun-25 09:31S 32°53' E 151°46'0 0.0
2015-Jun-25 08:22S 32°53' E 151°46'0 0.0
2015-Jun-25 07:28S 32°53' E 151°46'0 0.0
2015-Jun-25 06:28S 32°53' E 151°46'0 0.0
2015-Jun-25 05:28S 32°53' E 151°46'0 0.0
2015-Jun-25 04:22S 32°53' E 151°46'0 0.0
2015-Jun-25 03:28S 32°53' E 151°46'0 0.0
2015-Jun-25 02:31S 32°53' E 151°46'0 0.0
2015-Jun-25 01:28S 32°53' E 151°46'0 0.0
2015-Jun-25 00:28S 32°53' E 151°46'0 0.0
2015-Jun-24 23:28S 32°53' E 151°46'0 0.0
2015-Jun-24 22:31S 32°53' E 151°46'0 0.0
2015-Jun-24 21:31S 32°53' E 151°46'0 0.0
2015-Jun-24 20:28S 32°53' E 151°46'0 0.0
2015-Jun-24 19:28S 32°53' E 151°46'0 0.0
2015-Jun-24 18:31S 32°53' E 151°46'0 0.0
2015-Jun-24 17:31S 32°53' E 151°46'0 0.0
2015-Jun-24 16:28S 32°53' E 151°46'0 0.0
2015-Jun-24 15:31S 32°53' E 151°46'0 0.0
2015-Jun-24 14:28S 32°53' E 151°46'0 0.0
2015-Jun-24 13:31S 32°53' E 151°46'0 0.0
2015-Jun-24 12:16S 32°53' E 151°46'0 0.0
2015-Jun-24 11:28S 32°53' E 151°46'0 0.0
2015-Jun-24 10:31S 32°53' E 151°46'0 0.0
2015-Jun-24 09:28S 32°53' E 151°46'0 0.0
2015-Jun-24 08:10S 32°53' E 151°46'0 0.0
2015-Jun-24 07:28S 32°53' E 151°46'0 0.0
2015-Jun-24 06:28S 32°53' E 151°46'0 0.0
2015-Jun-24 05:28S 32°53' E 151°46'2 1.8
2015-Jun-24 04:33S 32°55' E 151°47'8 7.8
2015-Jun-24 03:33S 33°01' E 151°52'1010.4
2015-Jun-24 02:33S 33°11' E 151°47'1313.2
2015-Jun-24 01:32S 33°22' E 151°38'0 0.3
2015-Jun-24 00:33S 33°22' E 151°37'0 0.1
2015-Jun-23 23:33S 33°22' E 151°38'0 0.0
2015-Jun-23 21:27S 33°22' E 151°38'0 0.1
2015-Jun-23 20:30S 33°22' E 151°38'0 0.0
2015-Jun-23 19:33S 33°22' E 151°38'0 0.1
2015-Jun-23 19:03S 33°22' E 151°38'  
Track history (hours):
 
Tides and Currents Weather Stations Pressure Air Temp Water Temp Dewpoint Dewpoint Depression Visibility Wind Speed Wind Dir Waves Ship Positions

Pan Freesia

Last reported at 2015-Jun-26 10:33 UTC. Time now 2015-Jul-31 15:23 UTC.
Position S 32°31' E 152°45'.
Warning: this ship's position is 35 days out of date.

Length 292 m; draft 15.2 m.

Type: Cargo ship. MMSI: 538003616.

Date/timePositionNaut miles runAvg speedWind from/ knotsBaromVisibWave heightAir tempDewpointWater temp
2015-Jun-26 10:33S 32°31' E 152°45'1212.3
2015-Jun-26 09:33S 32°40' E 152°35'1211.6
2015-Jun-26 08:33S 32°48' E 152°25'1211.6
2015-Jun-26 07:33S 32°53' E 152°13'1212.2
2015-Jun-26 06:33S 32°58' E 151°59'10 9.6
2015-Jun-26 05:33S 32°55' E 151°48'2 1.9
2015-Jun-26 04:22S 32°53' E 151°46'0 0.0
2015-Jun-26 02:04S 32°53' E 151°46'0 0.0
2015-Jun-26 01:22S 32°53' E 151°46'0 0.0
2015-Jun-26 00:28S 32°53' E 151°46'0 0.0
2015-Jun-25 23:28S 32°53' E 151°46'0 0.0
2015-Jun-25 22:10S 32°53' E 151°46'0 0.0
2015-Jun-25 14:31S 32°53' E 151°46'0 0.0
2015-Jun-25 13:28S 32°53' E 151°46'0 0.0
2015-Jun-25 12:28S 32°53' E 151°46'0 0.0
2015-Jun-25 11:31S 32°53' E 151°46'0 0.0
2015-Jun-25 10:22S 32°53' E 151°46'0 0.0
2015-Jun-25 09:31S 32°53' E 151°46'0 0.0
2015-Jun-25 08:22S 32°53' E 151°46'0 0.0
2015-Jun-25 07:28S 32°53' E 151°46'0 0.0
2015-Jun-25 06:28S 32°53' E 151°46'0 0.0
2015-Jun-25 05:28S 32°53' E 151°46'0 0.0
2015-Jun-25 04:22S 32°53' E 151°46'0 0.0
2015-Jun-25 03:28S 32°53' E 151°46'0 0.0
2015-Jun-25 02:31S 32°53' E 151°46'0 0.0
2015-Jun-25 01:28S 32°53' E 151°46'0 0.0
2015-Jun-25 00:28S 32°53' E 151°46'0 0.0
2015-Jun-24 23:28S 32°53' E 151°46'0 0.0
2015-Jun-24 22:31S 32°53' E 151°46'0 0.0
2015-Jun-24 21:31S 32°53' E 151°46'0 0.0
2015-Jun-24 20:28S 32°53' E 151°46'0 0.0
2015-Jun-24 19:28S 32°53' E 151°46'0 0.0
2015-Jun-24 18:31S 32°53' E 151°46'0 0.0
2015-Jun-24 17:31S 32°53' E 151°46'0 0.0
2015-Jun-24 16:28S 32°53' E 151°46'0 0.0
2015-Jun-24 15:31S 32°53' E 151°46'0 0.0
2015-Jun-24 14:28S 32°53' E 151°46'0 0.0
2015-Jun-24 13:31S 32°53' E 151°46'0 0.0
2015-Jun-24 12:16S 32°53' E 151°46'0 0.0
2015-Jun-24 11:28S 32°53' E 151°46'0 0.0
2015-Jun-24 10:31S 32°53' E 151°46'0 0.0
2015-Jun-24 09:28S 32°53' E 151°46'0 0.0
2015-Jun-24 08:10S 32°53' E 151°46'0 0.0
2015-Jun-24 07:28S 32°53' E 151°46'0 0.0
2015-Jun-24 06:28S 32°53' E 151°46'0 0.0
2015-Jun-24 05:28S 32°53' E 151°46'2 1.8
2015-Jun-24 04:33S 32°55' E 151°47'8 7.8
2015-Jun-24 03:33S 33°01' E 151°52'1010.4
2015-Jun-24 02:33S 33°11' E 151°47'1313.2
2015-Jun-24 01:32S 33°22' E 151°38'0 0.3
2015-Jun-24 00:33S 33°22' E 151°37'0 0.1
2015-Jun-23 23:33S 33°22' E 151°38'0 0.0
2015-Jun-23 21:27S 33°22' E 151°38'0 0.1
2015-Jun-23 20:30S 33°22' E 151°38'0 0.0
2015-Jun-23 19:33S 33°22' E 151°38'0 0.1
2015-Jun-23 19:03S 33°22' E 151°38'  

Dump ship's entire track history